sensor_id;sensor_type;location;lat;lon;timestamp;P1;durP1;ratioP1;P2;durP2;ratioP2
42586;SDS011;28216;53.362;-6.288;2022-09-09T00:01:08;13.95;;;7.53;;
42586;SDS011;28216;53.362;-6.288;2022-09-09T00:03:49;14.82;;;7.50;;
42586;SDS011;28216;53.362;-6.288;2022-09-09T00:09:16;14.23;;;7.22;;
42586;SDS011;28216;53.362;-6.288;2022-09-09T00:11:43;13.45;;;7.30;;
42586;SDS011;28216;53.362;-6.288;2022-09-09T00:14:15;14.55;;;7.07;;
42586;SDS011;28216;53.362;-6.288;2022-09-09T00:17:00;13.25;;;7.25;;
42586;SDS011;28216;53.362;-6.288;2022-09-09T00:19:41;15.45;;;6.72;;
42586;SDS011;28216;53.362;-6.288;2022-09-09T00:22:16;11.68;;;6.38;;
42586;SDS011;28216;53.362;-6.288;2022-09-09T00:24:45;11.90;;;6.15;;
42586;SDS011;28216;53.362;-6.288;2022-09-09T00:30:17;11.27;;;6.05;;
42586;SDS011;28216;53.362;-6.288;2022-09-09T00:33:01;11.27;;;7.32;;
42586;SDS011;28216;53.362;-6.288;2022-09-09T00:35:37;12.95;;;7.45;;
42586;SDS011;28216;53.362;-6.288;2022-09-09T00:38:10;16.52;;;7.93;;
42586;SDS011;28216;53.362;-6.288;2022-09-09T00:43:23;11.52;;;8.00;;
42586;SDS011;28216;53.362;-6.288;2022-09-09T01:03:02;14.95;;;8.40;;
42586;SDS011;28216;53.362;-6.288;2022-09-09T01:08:10;10.63;;;7.22;;
42586;SDS011;28216;53.362;-6.288;2022-09-09T01:13:34;11.27;;;7.22;;
42586;SDS011;28216;53.362;-6.288;2022-09-09T01:16:02;11.93;;;7.30;;
42586;SDS011;28216;53.362;-6.288;2022-09-09T01:18:34;10.77;;;7.70;;
42586;SDS011;28216;53.362;-6.288;2022-09-09T01:21:17;11.80;;;6.90;;
42586;SDS011;28216;53.362;-6.288;2022-09-09T01:28:53;10.65;;;7.22;;
42586;SDS011;28216;53.362;-6.288;2022-09-09T01:31:30;8.25;;;6.72;;
42586;SDS011;28216;53.362;-6.288;2022-09-09T01:33:59;9.02;;;6.63;;
42586;SDS011;28216;53.362;-6.288;2022-09-09T01:36:35;10.65;;;6.40;;
42586;SDS011;28216;53.362;-6.288;2022-09-09T01:39:03;11.90;;;6.90;;
42586;SDS011;28216;53.362;-6.288;2022-09-09T01:41:29;8.93;;;6.63;;
42586;SDS011;28216;53.362;-6.288;2022-09-09T01:43:54;9.57;;;6.85;;
42586;SDS011;28216;53.362;-6.288;2022-09-09T01:46:21;9.95;;;6.45;;
42586;SDS011;28216;53.362;-6.288;2022-09-09T01:48:47;11.18;;;6.85;;
42586;SDS011;28216;53.362;-6.288;2022-09-09T01:51:15;8.25;;;6.38;;
42586;SDS011;28216;53.362;-6.288;2022-09-09T01:53:40;11.82;;;7.00;;
42586;SDS011;28216;53.362;-6.288;2022-09-09T02:01:47;9.55;;;6.78;;
42586;SDS011;28216;53.362;-6.288;2022-09-09T02:04:36;11.83;;;6.83;;
42586;SDS011;28216;53.362;-6.288;2022-09-09T02:07:15;10.05;;;6.25;;
42586;SDS011;28216;53.362;-6.288;2022-09-09T02:09:45;7.75;;;6.20;;
42586;SDS011;28216;53.362;-6.288;2022-09-09T02:12:15;11.30;;;6.53;;
42586;SDS011;28216;53.362;-6.288;2022-09-09T02:14:49;7.35;;;6.25;;
42586;SDS011;28216;53.362;-6.288;2022-09-09T02:17:21;10.65;;;6.13;;
42586;SDS011;28216;53.362;-6.288;2022-09-09T02:19:57;11.68;;;6.30;;
42586;SDS011;28216;53.362;-6.288;2022-09-09T02:22:32;10.65;;;6.35;;
42586;SDS011;28216;53.362;-6.288;2022-09-09T02:25:05;8.80;;;5.72;;
42586;SDS011;28216;53.362;-6.288;2022-09-09T02:27:33;10.55;;;5.82;;
42586;SDS011;28216;53.362;-6.288;2022-09-09T02:30:00;9.18;;;5.70;;
42586;SDS011;28216;53.362;-6.288;2022-09-09T02:32:27;8.77;;;5.43;;
42586;SDS011;28216;53.362;-6.288;2022-09-09T02:35:28;9.00;;;5.28;;
42586;SDS011;28216;53.362;-6.288;2022-09-09T02:37:49;8.27;;;5.15;;
42586;SDS011;28216;53.362;-6.288;2022-09-09T02:40:16;8.15;;;5.25;;
42586;SDS011;28216;53.362;-6.288;2022-09-09T02:42:43;7.40;;;5.47;;
42586;SDS011;28216;53.362;-6.288;2022-09-09T02:45:12;9.75;;;5.45;;
42586;SDS011;28216;53.362;-6.288;2022-09-09T02:47:50;7.47;;;5.38;;
42586;SDS011;28216;53.362;-6.288;2022-09-09T02:51:00;12.00;;;5.72;;
42586;SDS011;28216;53.362;-6.288;2022-09-09T02:53:54;8.00;;;5.35;;
42586;SDS011;28216;53.362;-6.288;2022-09-09T02:56:16;9.95;;;5.35;;
42586;SDS011;28216;53.362;-6.288;2022-09-09T02:58:46;9.25;;;5.68;;
42586;SDS011;28216;53.362;-6.288;2022-09-09T03:01:12;7.57;;;5.90;;
42586;SDS011;28216;53.362;-6.288;2022-09-09T03:03:37;7.47;;;5.50;;
42586;SDS011;28216;53.362;-6.288;2022-09-09T03:06:03;6.85;;;5.60;;
42586;SDS011;28216;53.362;-6.288;2022-09-09T03:08:30;9.20;;;5.60;;
42586;SDS011;28216;53.362;-6.288;2022-09-09T03:10:57;7.03;;;4.95;;
42586;SDS011;28216;53.362;-6.288;2022-09-09T03:13:23;7.35;;;5.47;;
42586;SDS011;28216;53.362;-6.288;2022-09-09T03:15:50;9.80;;;5.30;;
42586;SDS011;28216;53.362;-6.288;2022-09-09T03:18:16;7.82;;;5.40;;
42586;SDS011;28216;53.362;-6.288;2022-09-09T03:20:42;9.07;;;5.00;;
42586;SDS011;28216;53.362;-6.288;2022-09-09T03:23:08;10.02;;;5.25;;
42586;SDS011;28216;53.362;-6.288;2022-09-09T03:25:34;8.93;;;5.55;;
42586;SDS011;28216;53.362;-6.288;2022-09-09T03:28:00;9.98;;;5.38;;
42586;SDS011;28216;53.362;-6.288;2022-09-09T03:30:26;8.05;;;5.68;;
42586;SDS011;28216;53.362;-6.288;2022-09-09T03:32:53;9.80;;;5.22;;
42586;SDS011;28216;53.362;-6.288;2022-09-09T03:35:19;11.27;;;5.57;;
42586;SDS011;28216;53.362;-6.288;2022-09-09T03:37:45;10.68;;;5.35;;
42586;SDS011;28216;53.362;-6.288;2022-09-09T03:40:11;10.65;;;5.70;;
42586;SDS011;28216;53.362;-6.288;2022-09-09T03:42:38;7.85;;;4.80;;
42586;SDS011;28216;53.362;-6.288;2022-09-09T03:45:04;10.88;;;5.00;;
42586;SDS011;28216;53.362;-6.288;2022-09-09T03:47:31;11.10;;;5.10;;
42586;SDS011;28216;53.362;-6.288;2022-09-09T03:49:58;11.05;;;4.97;;
42586;SDS011;28216;53.362;-6.288;2022-09-09T03:52:23;8.60;;;5.03;;
42586;SDS011;28216;53.362;-6.288;2022-09-09T03:54:51;7.75;;;5.20;;
42586;SDS011;28216;53.362;-6.288;2022-09-09T03:57:18;7.70;;;5.25;;
42586;SDS011;28216;53.362;-6.288;2022-09-09T03:59:44;9.38;;;5.22;;
42586;SDS011;28216;53.362;-6.288;2022-09-09T04:02:09;13.43;;;5.72;;
42586;SDS011;28216;53.362;-6.288;2022-09-09T04:04:35;8.65;;;4.97;;
42586;SDS011;28216;53.362;-6.288;2022-09-09T04:07:00;7.03;;;4.95;;
42586;SDS011;28216;53.362;-6.288;2022-09-09T04:09:26;9.20;;;4.63;;
42586;SDS011;28216;53.362;-6.288;2022-09-09T04:11:51;8.73;;;4.38;;
42586;SDS011;28216;53.362;-6.288;2022-09-09T04:14:18;8.60;;;4.50;;
42586;SDS011;28216;53.362;-6.288;2022-09-09T04:16:44;6.20;;;4.20;;
42586;SDS011;28216;53.362;-6.288;2022-09-09T04:19:10;7.65;;;4.10;;
42586;SDS011;28216;53.362;-6.288;2022-09-09T04:21:41;8.05;;;4.32;;
42586;SDS011;28216;53.362;-6.288;2022-09-09T04:24:07;6.75;;;3.97;;
42586;SDS011;28216;53.362;-6.288;2022-09-09T04:26:33;7.13;;;4.03;;
42586;SDS011;28216;53.362;-6.288;2022-09-09T04:29:01;5.55;;;4.03;;
42586;SDS011;28216;53.362;-6.288;2022-09-09T04:31:28;8.07;;;4.50;;
42586;SDS011;28216;53.362;-6.288;2022-09-09T04:33:54;7.70;;;4.32;;
42586;SDS011;28216;53.362;-6.288;2022-09-09T04:36:23;8.75;;;4.18;;
42586;SDS011;28216;53.362;-6.288;2022-09-09T04:38:48;6.32;;;4.13;;
42586;SDS011;28216;53.362;-6.288;2022-09-09T04:41:14;6.43;;;4.15;;
42586;SDS011;28216;53.362;-6.288;2022-09-09T04:43:41;6.50;;;3.90;;
42586;SDS011;28216;53.362;-6.288;2022-09-09T04:46:07;8.05;;;4.10;;
42586;SDS011;28216;53.362;-6.288;2022-09-09T04:48:33;6.00;;;4.20;;
42586;SDS011;28216;53.362;-6.288;2022-09-09T04:51:03;6.35;;;4.00;;
42586;SDS011;28216;53.362;-6.288;2022-09-09T04:53:30;6.43;;;3.55;;
42586;SDS011;28216;53.362;-6.288;2022-09-09T04:56:05;7.03;;;3.90;;
42586;SDS011;28216;53.362;-6.288;2022-09-09T05:01:07;5.95;;;3.95;;
42586;SDS011;28216;53.362;-6.288;2022-09-09T05:03:43;6.53;;;3.40;;
42586;SDS011;28216;53.362;-6.288;2022-09-09T05:06:13;5.18;;;3.70;;
42586;SDS011;28216;53.362;-6.288;2022-09-09T05:08:41;4.93;;;3.40;;
42586;SDS011;28216;53.362;-6.288;2022-09-09T05:11:18;6.05;;;3.85;;
42586;SDS011;28216;53.362;-6.288;2022-09-09T05:13:48;6.35;;;3.70;;
42586;SDS011;28216;53.362;-6.288;2022-09-09T05:16:15;6.80;;;4.20;;
42586;SDS011;28216;53.362;-6.288;2022-09-09T05:18:41;8.50;;;4.00;;
42586;SDS011;28216;53.362;-6.288;2022-09-09T05:21:08;5.35;;;3.78;;
42586;SDS011;28216;53.362;-6.288;2022-09-09T05:23:34;9.02;;;4.15;;
42586;SDS011;28216;53.362;-6.288;2022-09-09T05:26:00;4.35;;;3.90;;
42586;SDS011;28216;53.362;-6.288;2022-09-09T05:28:26;5.32;;;4.15;;
42586;SDS011;28216;53.362;-6.288;2022-09-09T05:30:59;5.47;;;4.20;;
42586;SDS011;28216;53.362;-6.288;2022-09-09T05:33:26;7.70;;;4.05;;
42586;SDS011;28216;53.362;-6.288;2022-09-09T05:35:58;5.78;;;3.63;;
42586;SDS011;28216;53.362;-6.288;2022-09-09T05:38:27;5.63;;;4.00;;
42586;SDS011;28216;53.362;-6.288;2022-09-09T05:40:54;5.57;;;4.10;;
42586;SDS011;28216;53.362;-6.288;2022-09-09T05:43:20;7.72;;;4.45;;
42586;SDS011;28216;53.362;-6.288;2022-09-09T05:45:46;8.77;;;4.40;;
42586;SDS011;28216;53.362;-6.288;2022-09-09T05:48:13;10.88;;;4.45;;
42586;SDS011;28216;53.362;-6.288;2022-09-09T05:50:40;7.45;;;4.15;;
42586;SDS011;28216;53.362;-6.288;2022-09-09T05:53:06;9.68;;;5.30;;
42586;SDS011;28216;53.362;-6.288;2022-09-09T05:55:31;7.15;;;4.85;;
42586;SDS011;28216;53.362;-6.288;2022-09-09T05:57:57;8.32;;;4.40;;
42586;SDS011;28216;53.362;-6.288;2022-09-09T06:00:22;6.18;;;4.47;;
42586;SDS011;28216;53.362;-6.288;2022-09-09T06:02:51;8.45;;;4.50;;
42586;SDS011;28216;53.362;-6.288;2022-09-09T06:05:18;8.57;;;4.30;;
42586;SDS011;28216;53.362;-6.288;2022-09-09T06:07:44;7.05;;;4.10;;
42586;SDS011;28216;53.362;-6.288;2022-09-09T06:10:10;12.57;;;4.43;;
42586;SDS011;28216;53.362;-6.288;2022-09-09T06:12:38;8.32;;;4.40;;
42586;SDS011;28216;53.362;-6.288;2022-09-09T06:15:04;6.43;;;4.00;;
42586;SDS011;28216;53.362;-6.288;2022-09-09T06:17:30;5.95;;;3.70;;
42586;SDS011;28216;53.362;-6.288;2022-09-09T06:19:56;6.40;;;3.90;;
42586;SDS011;28216;53.362;-6.288;2022-09-09T06:22:22;7.85;;;4.20;;
42586;SDS011;28216;53.362;-6.288;2022-09-09T06:24:47;8.45;;;4.43;;
42586;SDS011;28216;53.362;-6.288;2022-09-09T06:27:12;7.53;;;4.07;;
42586;SDS011;28216;53.362;-6.288;2022-09-09T06:29:38;5.38;;;3.65;;
42586;SDS011;28216;53.362;-6.288;2022-09-09T06:32:04;6.72;;;3.70;;
42586;SDS011;28216;53.362;-6.288;2022-09-09T06:34:30;6.20;;;3.67;;
42586;SDS011;28216;53.362;-6.288;2022-09-09T06:36:55;7.40;;;3.60;;
42586;SDS011;28216;53.362;-6.288;2022-09-09T06:39:22;4.78;;;3.50;;
42586;SDS011;28216;53.362;-6.288;2022-09-09T06:41:48;7.38;;;3.47;;
42586;SDS011;28216;53.362;-6.288;2022-09-09T06:44:14;7.30;;;4.00;;
42586;SDS011;28216;53.362;-6.288;2022-09-09T06:46:40;6.22;;;3.25;;
42586;SDS011;28216;53.362;-6.288;2022-09-09T06:49:07;5.18;;;3.33;;
42586;SDS011;28216;53.362;-6.288;2022-09-09T06:51:34;5.40;;;3.50;;
42586;SDS011;28216;53.362;-6.288;2022-09-09T06:54:02;6.47;;;4.40;;
42586;SDS011;28216;53.362;-6.288;2022-09-09T06:56:29;4.10;;;3.17;;
42586;SDS011;28216;53.362;-6.288;2022-09-09T06:59:00;5.93;;;3.10;;
42586;SDS011;28216;53.362;-6.288;2022-09-09T07:01:30;5.82;;;3.20;;
42586;SDS011;28216;53.362;-6.288;2022-09-09T07:03:57;3.55;;;2.90;;
42586;SDS011;28216;53.362;-6.288;2022-09-09T07:06:24;4.07;;;3.30;;
42586;SDS011;28216;53.362;-6.288;2022-09-09T07:08:56;4.15;;;3.30;;
42586;SDS011;28216;53.362;-6.288;2022-09-09T07:11:25;3.80;;;3.05;;
42586;SDS011;28216;53.362;-6.288;2022-09-09T07:13:53;3.35;;;3.05;;
42586;SDS011;28216;53.362;-6.288;2022-09-09T07:16:19;3.58;;;3.08;;
42586;SDS011;28216;53.362;-6.288;2022-09-09T07:18:46;3.95;;;3.30;;
42586;SDS011;28216;53.362;-6.288;2022-09-09T07:21:12;5.03;;;3.22;;
42586;SDS011;28216;53.362;-6.288;2022-09-09T07:23:39;5.45;;;3.35;;
42586;SDS011;28216;53.362;-6.288;2022-09-09T07:26:12;5.75;;;3.50;;
42586;SDS011;28216;53.362;-6.288;2022-09-09T07:28:39;4.60;;;3.28;;
42586;SDS011;28216;53.362;-6.288;2022-09-09T07:31:07;4.55;;;3.30;;
42586;SDS011;28216;53.362;-6.288;2022-09-09T07:33:38;4.00;;;2.72;;
42586;SDS011;28216;53.362;-6.288;2022-09-09T07:36:16;4.82;;;3.00;;
42586;SDS011;28216;53.362;-6.288;2022-09-09T07:38:43;5.15;;;3.20;;
42586;SDS011;28216;53.362;-6.288;2022-09-09T07:41:12;5.18;;;3.28;;
42586;SDS011;28216;53.362;-6.288;2022-09-09T07:43:40;4.00;;;2.85;;
42586;SDS011;28216;53.362;-6.288;2022-09-09T07:46:07;3.13;;;2.72;;
42586;SDS011;28216;53.362;-6.288;2022-09-09T07:48:33;4.25;;;2.70;;
42586;SDS011;28216;53.362;-6.288;2022-09-09T07:51:03;3.60;;;3.00;;
42586;SDS011;28216;53.362;-6.288;2022-09-09T07:53:31;4.82;;;3.20;;
42586;SDS011;28216;53.362;-6.288;2022-09-09T07:56:02;4.22;;;2.92;;
42586;SDS011;28216;53.362;-6.288;2022-09-09T07:58:31;3.78;;;2.80;;
42586;SDS011;28216;53.362;-6.288;2022-09-09T08:00:56;4.38;;;2.70;;
42586;SDS011;28216;53.362;-6.288;2022-09-09T08:03:22;4.15;;;2.80;;
42586;SDS011;28216;53.362;-6.288;2022-09-09T08:05:48;3.15;;;2.80;;
42586;SDS011;28216;53.362;-6.288;2022-09-09T08:08:14;2.65;;;1.95;;
42586;SDS011;28216;53.362;-6.288;2022-09-09T08:10:41;2.80;;;2.30;;
42586;SDS011;28216;53.362;-6.288;2022-09-09T08:13:08;2.33;;;2.13;;
42586;SDS011;28216;53.362;-6.288;2022-09-09T08:15:33;5.57;;;2.20;;
42586;SDS011;28216;53.362;-6.288;2022-09-09T08:17:59;3.72;;;2.08;;
42586;SDS011;28216;53.362;-6.288;2022-09-09T08:20:24;3.63;;;2.10;;
42586;SDS011;28216;53.362;-6.288;2022-09-09T08:22:50;1.98;;;1.60;;
42586;SDS011;28216;53.362;-6.288;2022-09-09T08:25:15;3.78;;;1.60;;
42586;SDS011;28216;53.362;-6.288;2022-09-09T08:27:41;3.33;;;1.50;;
42586;SDS011;28216;53.362;-6.288;2022-09-09T08:30:06;4.05;;;1.73;;
42586;SDS011;28216;53.362;-6.288;2022-09-09T08:32:32;2.70;;;1.63;;
42586;SDS011;28216;53.362;-6.288;2022-09-09T08:35:00;2.08;;;1.42;;
42586;SDS011;28216;53.362;-6.288;2022-09-09T08:37:25;3.70;;;1.52;;
42586;SDS011;28216;53.362;-6.288;2022-09-09T08:39:51;4.03;;;1.50;;
42586;SDS011;28216;53.362;-6.288;2022-09-09T08:45:16;2.22;;;1.55;;
42586;SDS011;28216;53.362;-6.288;2022-09-09T08:47:56;2.05;;;1.75;;
42586;SDS011;28216;53.362;-6.288;2022-09-09T08:50:30;4.97;;;1.80;;
42586;SDS011;28216;53.362;-6.288;2022-09-09T08:53:04;4.20;;;1.65;;
42586;SDS011;28216;53.362;-6.288;2022-09-09T08:58:28;3.28;;;1.50;;
42586;SDS011;28216;53.362;-6.288;2022-09-09T09:04:12;2.15;;;1.45;;
42586;SDS011;28216;53.362;-6.288;2022-09-09T09:13:04;3.28;;;1.33;;
42586;SDS011;28216;53.362;-6.288;2022-09-09T09:15:38;2.80;;;1.50;;
42586;SDS011;28216;53.362;-6.288;2022-09-09T09:18:07;1.52;;;1.15;;
42586;SDS011;28216;53.362;-6.288;2022-09-09T09:20:42;8.07;;;1.50;;
42586;SDS011;28216;53.362;-6.288;2022-09-09T09:23:15;3.53;;;1.30;;
42586;SDS011;28216;53.362;-6.288;2022-09-09T09:25:47;2.83;;;1.40;;
42586;SDS011;28216;53.362;-6.288;2022-09-09T09:28:20;3.35;;;1.50;;
42586;SDS011;28216;53.362;-6.288;2022-09-09T09:36:07;3.38;;;1.60;;
42586;SDS011;28216;53.362;-6.288;2022-09-09T09:38:34;2.95;;;1.40;;
42586;SDS011;28216;53.362;-6.288;2022-09-09T09:41:01;2.08;;;1.40;;
42586;SDS011;28216;53.362;-6.288;2022-09-09T09:43:34;2.55;;;1.77;;
42586;SDS011;28216;53.362;-6.288;2022-09-09T09:46:03;2.65;;;1.65;;
42586;SDS011;28216;53.362;-6.288;2022-09-09T09:48:29;3.80;;;1.98;;
42586;SDS011;28216;53.362;-6.288;2022-09-09T09:50:59;3.90;;;1.95;;
42586;SDS011;28216;53.362;-6.288;2022-09-09T09:53:31;4.43;;;1.70;;
42586;SDS011;28216;53.362;-6.288;2022-09-09T09:58:30;6.43;;;1.88;;
42586;SDS011;28216;53.362;-6.288;2022-09-09T10:00:59;3.92;;;1.73;;
42586;SDS011;28216;53.362;-6.288;2022-09-09T10:03:32;3.22;;;1.88;;
42586;SDS011;28216;53.362;-6.288;2022-09-09T10:06:03;3.58;;;1.80;;
42586;SDS011;28216;53.362;-6.288;2022-09-09T10:08:29;3.70;;;1.70;;
42586;SDS011;28216;53.362;-6.288;2022-09-09T10:13:53;3.10;;;1.70;;
42586;SDS011;28216;53.362;-6.288;2022-09-09T10:16:52;3.28;;;1.77;;
42586;SDS011;28216;53.362;-6.288;2022-09-09T10:19:36;4.78;;;1.70;;
42586;SDS011;28216;53.362;-6.288;2022-09-09T10:33:07;1.80;;;1.50;;
42586;SDS011;28216;53.362;-6.288;2022-09-09T10:46:06;2.45;;;1.40;;
42586;SDS011;28216;53.362;-6.288;2022-09-09T10:54:14;2.40;;;1.30;;
42586;SDS011;28216;53.362;-6.288;2022-09-09T10:56:49;1.63;;;1.27;;
42586;SDS011;28216;53.362;-6.288;2022-09-09T10:59:26;2.38;;;1.45;;
42586;SDS011;28216;53.362;-6.288;2022-09-09T11:02:01;2.88;;;1.30;;
42586;SDS011;28216;53.362;-6.288;2022-09-09T11:04:42;2.90;;;1.60;;
42586;SDS011;28216;53.362;-6.288;2022-09-09T11:07:14;2.45;;;1.50;;
42586;SDS011;28216;53.362;-6.288;2022-09-09T11:10:07;1.58;;;1.40;;
42586;SDS011;28216;53.362;-6.288;2022-09-09T11:12:49;2.17;;;1.45;;
42586;SDS011;28216;53.362;-6.288;2022-09-09T11:18:48;3.05;;;1.75;;
42586;SDS011;28216;53.362;-6.288;2022-09-09T11:21:23;2.35;;;1.70;;
42586;SDS011;28216;53.362;-6.288;2022-09-09T11:24:04;1.95;;;1.63;;
42586;SDS011;28216;53.362;-6.288;2022-09-09T11:26:38;3.63;;;1.63;;
42586;SDS011;28216;53.362;-6.288;2022-09-09T11:40:35;5.78;;;2.40;;
42586;SDS011;28216;53.362;-6.288;2022-09-09T11:45:52;2.45;;;1.73;;
42586;SDS011;28216;53.362;-6.288;2022-09-09T11:48:31;2.58;;;2.00;;
42586;SDS011;28216;53.362;-6.288;2022-09-09T11:51:01;2.73;;;1.70;;
42586;SDS011;28216;53.362;-6.288;2022-09-09T11:53:28;2.22;;;1.85;;
42586;SDS011;28216;53.362;-6.288;2022-09-09T11:56:04;5.70;;;1.80;;
42586;SDS011;28216;53.362;-6.288;2022-09-09T11:58:39;2.75;;;1.83;;
42586;SDS011;28216;53.362;-6.288;2022-09-09T12:01:14;2.55;;;1.80;;
42586;SDS011;28216;53.362;-6.288;2022-09-09T12:03:51;2.67;;;1.80;;
42586;SDS011;28216;53.362;-6.288;2022-09-09T12:06:30;3.45;;;1.88;;
42586;SDS011;28216;53.362;-6.288;2022-09-09T12:09:19;4.43;;;2.13;;
42586;SDS011;28216;53.362;-6.288;2022-09-09T12:11:48;2.42;;;1.63;;
42586;SDS011;28216;53.362;-6.288;2022-09-09T12:14:34;3.92;;;1.80;;
42586;SDS011;28216;53.362;-6.288;2022-09-09T12:19:41;3.40;;;1.58;;
42586;SDS011;28216;53.362;-6.288;2022-09-09T12:22:11;2.40;;;1.40;;
42586;SDS011;28216;53.362;-6.288;2022-09-09T12:25:18;3.40;;;1.80;;
42586;SDS011;28216;53.362;-6.288;2022-09-09T12:28:22;2.75;;;1.60;;
42586;SDS011;28216;53.362;-6.288;2022-09-09T12:33:34;1.92;;;1.50;;
42586;SDS011;28216;53.362;-6.288;2022-09-09T12:36:02;2.78;;;1.83;;
42586;SDS011;28216;53.362;-6.288;2022-09-09T12:38:31;4.13;;;1.80;;
42586;SDS011;28216;53.362;-6.288;2022-09-09T12:41:00;2.05;;;1.95;;
42586;SDS011;28216;53.362;-6.288;2022-09-09T12:43:26;3.50;;;1.88;;
42586;SDS011;28216;53.362;-6.288;2022-09-09T12:46:03;3.33;;;1.63;;
42586;SDS011;28216;53.362;-6.288;2022-09-09T12:48:41;2.10;;;1.40;;
42586;SDS011;28216;53.362;-6.288;2022-09-09T12:51:17;1.77;;;1.40;;
42586;SDS011;28216;53.362;-6.288;2022-09-09T12:53:46;2.13;;;1.35;;
42586;SDS011;28216;53.362;-6.288;2022-09-09T12:56:22;1.40;;;1.30;;
42586;SDS011;28216;53.362;-6.288;2022-09-09T12:58:55;1.73;;;1.42;;
42586;SDS011;28216;53.362;-6.288;2022-09-09T13:01:23;1.50;;;1.40;;
42586;SDS011;28216;53.362;-6.288;2022-09-09T13:03:49;3.40;;;1.70;;
42586;SDS011;28216;53.362;-6.288;2022-09-09T13:06:33;2.42;;;2.20;;
42586;SDS011;28216;53.362;-6.288;2022-09-09T13:08:59;2.58;;;1.50;;
42586;SDS011;28216;53.362;-6.288;2022-09-09T13:11:37;3.63;;;1.52;;
42586;SDS011;28216;53.362;-6.288;2022-09-09T13:14:12;2.05;;;1.25;;
42586;SDS011;28216;53.362;-6.288;2022-09-09T13:16:58;2.40;;;1.25;;
42586;SDS011;28216;53.362;-6.288;2022-09-09T13:19:26;1.50;;;1.30;;
42586;SDS011;28216;53.362;-6.288;2022-09-09T13:21:56;1.25;;;1.15;;
42586;SDS011;28216;53.362;-6.288;2022-09-09T13:24:24;1.75;;;1.45;;
42586;SDS011;28216;53.362;-6.288;2022-09-09T13:26:58;2.45;;;1.60;;
42586;SDS011;28216;53.362;-6.288;2022-09-09T13:29:27;2.20;;;1.60;;
42586;SDS011;28216;53.362;-6.288;2022-09-09T13:31:54;2.72;;;1.83;;
42586;SDS011;28216;53.362;-6.288;2022-09-09T13:34:32;2.67;;;1.70;;
42586;SDS011;28216;53.362;-6.288;2022-09-09T13:37:04;2.50;;;1.70;;
42586;SDS011;28216;53.362;-6.288;2022-09-09T13:39:34;2.72;;;1.73;;
42586;SDS011;28216;53.362;-6.288;2022-09-09T13:42:02;1.60;;;1.33;;
42586;SDS011;28216;53.362;-6.288;2022-09-09T13:44:29;3.15;;;1.70;;
42586;SDS011;28216;53.362;-6.288;2022-09-09T13:49:29;3.65;;;2.05;;
42586;SDS011;28216;53.362;-6.288;2022-09-09T13:52:14;2.45;;;1.98;;
42586;SDS011;28216;53.362;-6.288;2022-09-09T13:54:43;3.50;;;2.40;;
42586;SDS011;28216;53.362;-6.288;2022-09-09T13:57:20;3.67;;;2.60;;
42586;SDS011;28216;53.362;-6.288;2022-09-09T13:59:48;2.90;;;2.63;;
42586;SDS011;28216;53.362;-6.288;2022-09-09T14:02:14;2.83;;;2.38;;
42586;SDS011;28216;53.362;-6.288;2022-09-09T14:04:41;5.57;;;2.40;;
42586;SDS011;28216;53.362;-6.288;2022-09-09T14:07:15;4.45;;;2.65;;
42586;SDS011;28216;53.362;-6.288;2022-09-09T14:09:43;3.53;;;3.15;;
42586;SDS011;28216;53.362;-6.288;2022-09-09T14:12:09;5.78;;;4.03;;
42586;SDS011;28216;53.362;-6.288;2022-09-09T14:14:36;5.78;;;5.10;;
42586;SDS011;28216;53.362;-6.288;2022-09-09T14:17:02;5.93;;;5.32;;
42586;SDS011;28216;53.362;-6.288;2022-09-09T14:19:28;5.10;;;4.57;;
42586;SDS011;28216;53.362;-6.288;2022-09-09T14:21:55;5.28;;;4.60;;
42586;SDS011;28216;53.362;-6.288;2022-09-09T14:24:21;4.72;;;3.10;;
42586;SDS011;28216;53.362;-6.288;2022-09-09T14:26:47;3.50;;;2.70;;
42586;SDS011;28216;53.362;-6.288;2022-09-09T14:29:12;2.63;;;2.40;;
42586;SDS011;28216;53.362;-6.288;2022-09-09T14:31:38;3.92;;;2.38;;
42586;SDS011;28216;53.362;-6.288;2022-09-09T14:34:03;4.25;;;2.70;;
42586;SDS011;28216;53.362;-6.288;2022-09-09T14:36:29;4.28;;;2.80;;
42586;SDS011;28216;53.362;-6.288;2022-09-09T14:38:55;3.80;;;2.90;;
42586;SDS011;28216;53.362;-6.288;2022-09-09T14:41:20;3.80;;;2.47;;
42586;SDS011;28216;53.362;-6.288;2022-09-09T14:43:47;4.38;;;2.45;;
42586;SDS011;28216;53.362;-6.288;2022-09-09T14:46:14;4.55;;;2.60;;
42586;SDS011;28216;53.362;-6.288;2022-09-09T14:48:40;4.88;;;2.40;;
42586;SDS011;28216;53.362;-6.288;2022-09-09T14:51:07;2.47;;;1.92;;
42586;SDS011;28216;53.362;-6.288;2022-09-09T14:53:43;2.08;;;1.80;;
42586;SDS011;28216;53.362;-6.288;2022-09-09T14:56:13;1.90;;;1.30;;
42586;SDS011;28216;53.362;-6.288;2022-09-09T14:58:41;1.92;;;1.75;;
42586;SDS011;28216;53.362;-6.288;2022-09-09T15:01:08;2.22;;;1.60;;
42586;SDS011;28216;53.362;-6.288;2022-09-09T15:03:36;3.08;;;1.50;;
42586;SDS011;28216;53.362;-6.288;2022-09-09T15:06:12;1.42;;;1.30;;
42586;SDS011;28216;53.362;-6.288;2022-09-09T15:08:40;2.90;;;1.48;;
42586;SDS011;28216;53.362;-6.288;2022-09-09T15:11:07;1.30;;;1.20;;
42586;SDS011;28216;53.362;-6.288;2022-09-09T15:13:36;1.20;;;1.10;;
42586;SDS011;28216;53.362;-6.288;2022-09-09T15:16:06;1.77;;;1.30;;
42586;SDS011;28216;53.362;-6.288;2022-09-09T15:18:33;2.10;;;1.30;;
42586;SDS011;28216;53.362;-6.288;2022-09-09T15:21:01;2.65;;;1.63;;
42586;SDS011;28216;53.362;-6.288;2022-09-09T15:23:33;2.00;;;1.70;;
42586;SDS011;28216;53.362;-6.288;2022-09-09T15:25:59;2.50;;;1.50;;
42586;SDS011;28216;53.362;-6.288;2022-09-09T15:28:25;2.17;;;1.40;;
42586;SDS011;28216;53.362;-6.288;2022-09-09T15:30:51;2.47;;;1.20;;
42586;SDS011;28216;53.362;-6.288;2022-09-09T15:33:21;2.05;;;1.10;;
42586;SDS011;28216;53.362;-6.288;2022-09-09T15:35:47;3.78;;;1.10;;
42586;SDS011;28216;53.362;-6.288;2022-09-09T15:38:14;1.00;;;1.00;;
42586;SDS011;28216;53.362;-6.288;2022-09-09T15:40:40;1.73;;;1.30;;
42586;SDS011;28216;53.362;-6.288;2022-09-09T15:43:06;1.42;;;1.13;;
42586;SDS011;28216;53.362;-6.288;2022-09-09T15:45:32;4.30;;;1.15;;
42586;SDS011;28216;53.362;-6.288;2022-09-09T15:47:59;2.17;;;1.10;;
42586;SDS011;28216;53.362;-6.288;2022-09-09T15:50:25;1.27;;;1.00;;
42586;SDS011;28216;53.362;-6.288;2022-09-09T15:52:51;1.30;;;1.15;;
42586;SDS011;28216;53.362;-6.288;2022-09-09T15:55:17;1.85;;;1.17;;
42586;SDS011;28216;53.362;-6.288;2022-09-09T15:57:45;3.20;;;1.10;;
42586;SDS011;28216;53.362;-6.288;2022-09-09T16:00:13;2.58;;;1.20;;
42586;SDS011;28216;53.362;-6.288;2022-09-09T16:02:39;3.85;;;1.42;;
42586;SDS011;28216;53.362;-6.288;2022-09-09T16:05:05;2.70;;;1.10;;
42586;SDS011;28216;53.362;-6.288;2022-09-09T16:07:31;1.20;;;1.10;;
42586;SDS011;28216;53.362;-6.288;2022-09-09T16:09:56;1.65;;;1.13;;
42586;SDS011;28216;53.362;-6.288;2022-09-09T16:12:22;1.65;;;1.20;;
42586;SDS011;28216;53.362;-6.288;2022-09-09T16:14:47;2.08;;;1.30;;
42586;SDS011;28216;53.362;-6.288;2022-09-09T16:17:13;2.28;;;1.10;;
42586;SDS011;28216;53.362;-6.288;2022-09-09T16:19:40;1.63;;;1.30;;
42586;SDS011;28216;53.362;-6.288;2022-09-09T16:22:05;2.22;;;1.30;;
42586;SDS011;28216;53.362;-6.288;2022-09-09T16:24:31;1.70;;;1.15;;
42586;SDS011;28216;53.362;-6.288;2022-09-09T16:26:58;2.55;;;1.35;;
42586;SDS011;28216;53.362;-6.288;2022-09-09T16:29:24;2.08;;;1.30;;
42586;SDS011;28216;53.362;-6.288;2022-09-09T16:31:52;3.00;;;1.40;;
42586;SDS011;28216;53.362;-6.288;2022-09-09T16:34:18;2.63;;;1.50;;
42586;SDS011;28216;53.362;-6.288;2022-09-09T16:36:47;2.92;;;1.27;;
42586;SDS011;28216;53.362;-6.288;2022-09-09T16:39:17;2.33;;;1.50;;
42586;SDS011;28216;53.362;-6.288;2022-09-09T16:41:45;3.72;;;2.13;;
42586;SDS011;28216;53.362;-6.288;2022-09-09T16:44:13;39.45;;;32.75;;
42586;SDS011;28216;53.362;-6.288;2022-09-09T16:46:43;9.07;;;4.53;;
42586;SDS011;28216;53.362;-6.288;2022-09-09T16:49:10;4.72;;;2.90;;
42586;SDS011;28216;53.362;-6.288;2022-09-09T16:51:47;5.00;;;2.20;;